Flight Track Log - Related Links

Times and Time Zones

All times are in EDT time to prevent confusion due to time zone crossing. See the SWA789 flight status page for this flight to view local times or setup timezone preferences in your user account.

Time Position Orientation Groundspeed Altitude Reporting Facility
EDT Latitude Longitude Course Direction KTS MPH feet Rate Location/Type
Mon 11:12:34 AM 41.7061 -71.4447 278° West 154 177 900  Level Boston Center
Mon 11:14:54 AM 41.7244 -71.6308 327° Northwest 251 289 5,200 2,190 Climbing Boston Center
Mon 11:15:54 AM 41.7831 -71.6828 326° Northwest 252 290 8,200 2,723 Climbing Boston Center
Mon 11:16:53 AM 41.8522 -71.7461 325° Northwest 276 318 10,600 2,200 Climbing Boston Center
Mon 11:17:54 AM 41.9236 -71.8122 302° West 321 369 12,600 2,231 Climbing Boston Center
Mon 11:18:54 AM 41.9783 -71.9319 293° West 340 391 15,100 2,300 Climbing Boston Center
Mon 11:19:54 AM 42.0142 -72.0433 293° West 350 403 17,200 1,966 Climbing Boston Center
Mon 11:20:53 AM 42.0583 -72.1828 293° West 371 427 19,000 1,765 Climbing Boston Center
Mon 11:21:53 AM 42.1003 -72.3142 291° West 377 434 20,700 1,650 Climbing Boston Center
Mon 11:22:53 AM 42.1400 -72.4514 293° West 383 441 22,300 1,650 Climbing Boston Center
Mon 11:23:53 AM 42.1836 -72.5914 292° West 399 459 24,000 1,500 Climbing Boston Center
Mon 11:24:53 AM 42.2269 -72.7344 291° West 404 465 25,300 1,350 Climbing Boston Center
Mon 11:25:53 AM 42.2683 -72.8833 291° West 414 476 26,700 1,388 Climbing Boston Center
Mon 11:26:54 AM 42.3114 -73.0325 294° West 420 483 28,100 1,339 Climbing Boston Center
Mon 11:27:54 AM 42.3544 -73.1622 290° West 420 483 29,400 1,300 Climbing Boston Center
Mon 11:28:54 AM 42.3950 -73.3117 283° West 420 483 30,700 1,300 Climbing Boston Center
Mon 11:29:54 AM 42.4228 -73.4694 283° West 425 489 32,000 1,300 Climbing Boston Center
Mon 11:30:54 AM 42.4483 -73.6189 282° West 419 482 33,300 1,000 Climbing Boston Center
Mon 11:31:54 AM 42.4717 -73.7714 280° West 414 476 34,000 350 Climbing Boston Center
Mon 11:32:54 AM 42.4928 -73.9267 281° West 414 476 34,000  Level Boston Center
Mon 11:33:54 AM 42.5156 -74.0908 282° West 414 476 34,000  Level Boston Center
Mon 11:34:53 AM 42.5364 -74.2264 280° West 414 476 34,000  Level Boston Center
Mon 11:35:53 AM 42.5586 -74.3936 281° West 414 476 34,000  Level Boston Center
Mon 11:36:54 AM 42.5772 -74.5294 280° West 414 476 34,000  Level Boston Center
Mon 11:37:53 AM 42.5989 -74.6936 280° West 414 476 34,000  Level Boston Center
Mon 11:38:54 AM 42.6169 -74.8356 281° West 415 478 34,000  Level Boston Center
Mon 11:39:53 AM 42.6406 -75.0000 280° West 415 478 34,000  Level Boston Center
Mon 11:40:53 AM 42.6597 -75.1533 281° West 409 471 34,000  Level Boston Center
Mon 11:41:53 AM 42.6811 -75.3042 280° West 409 471 34,000  Level Boston Center
Mon 11:42:54 AM 42.7003 -75.4547 281° West 409 471 34,000  Level Boston Center
Mon 11:43:53 AM 42.7211 -75.6083 277° West 409 471 34,000  Level Boston Center
Mon 11:44:53 AM 42.7353 -75.7619 265° West 414 476 34,000  Level Boston Center
Mon 11:45:54 AM 42.7244 -75.9139 261° West 408 470 34,000  Level Boston Center
Mon 11:46:54 AM 42.7072 -76.0683 260° West 408 470 34,000  Level Boston Center
Mon 11:48:32 AM 42.6767 -76.3014 261° West 386 444 34,000  Level Cleveland Center
Mon 11:49:32 AM 42.6594 -76.4550 261° West 398 458 34,000  Level Cleveland Center
Mon 11:50:32 AM 42.6417 -76.6058 261° West 409 471 34,000  Level Cleveland Center
Mon 11:51:32 AM 42.6225 -76.7736 260° West 409 471 34,000  Level Cleveland Center
Mon 11:52:32 AM 42.6022 -76.9217 261° West 409 471 34,000  Level Cleveland Center
Mon 11:53:32 AM 42.5842 -77.0750 261° West 414 476 34,000  Level Cleveland Center
Mon 11:54:32 AM 42.5656 -77.2253 261° West 414 476 34,000  Level Cleveland Center
Mon 11:55:32 AM 42.5469 -77.3786 258° West 414 476 34,000  Level Cleveland Center
Mon 11:56:32 AM 42.5239 -77.5292 261° West 409 471 34,000  Level Cleveland Center
Mon 11:57:32 AM 42.5050 -77.6822 260° West 414 476 34,000  Level Cleveland Center
Mon 11:58:32 AM 42.4892 -77.8011 260° West 414 476 34,000  Level Cleveland Center
Mon 11:59:32 AM 42.4681 -77.9711 260° West 414 476 34,000  Level Cleveland Center
Mon 12:00:32 PM 42.4486 -78.1239 259° West 414 476 34,000  Level Cleveland Center
Mon 12:01:32 PM 42.4250 -78.2936 260° West 414 476 34,000  Level Cleveland Center
Mon 12:02:32 PM 42.4050 -78.4461 260° West 414 476 34,000  Level Cleveland Center
Mon 12:03:32 PM 42.3847 -78.5986 259° West 414 476 34,000  Level Cleveland Center
Mon 12:04:32 PM 42.3622 -78.7539 260° West 414 476 34,000  Level Cleveland Center
Mon 12:05:32 PM 42.3417 -78.9033 259° West 414 476 34,000  Level Cleveland Center
Mon 12:06:32 PM 42.3189 -79.0583 259° West 414 476 34,000  Level Cleveland Center
Mon 12:07:32 PM 42.2978 -79.1992 258° West 414 476 34,000  Level Cleveland Center
Mon 12:08:32 PM 42.2744 -79.3514 258° West 420 483 34,000  Level Cleveland Center
Mon 12:09:32 PM 42.2508 -79.5033 259° West 420 483 34,000  Level Cleveland Center
Mon 12:10:32 PM 42.2294 -79.6578 259° West 420 483 34,000  Level Cleveland Center
Mon 12:11:32 PM 42.2075 -79.8094 258° West 420 483 34,000  Level Cleveland Center
Mon 12:12:32 PM 42.1833 -79.9667 257° West 420 483 34,000  Level Cleveland Center
Mon 12:13:32 PM 42.1550 -80.1350 260° West 420 483 34,000  Level Cleveland Center
Mon 12:14:32 PM 42.1347 -80.2836 258° West 415 478 34,000  Level Cleveland Center
Mon 12:15:32 PM 42.1100 -80.4375 258° West 415 478 34,000  Level Cleveland Center
Mon 12:16:32 PM 42.0850 -80.5917 257° West 410 472 34,000  Level Cleveland Center
Mon 12:17:32 PM 42.0600 -80.7397 259° West 420 483 34,000  Level Cleveland Center
Mon 12:18:32 PM 42.0367 -80.8964 257° West 415 478 34,000  Level Cleveland Center
Mon 12:19:32 PM 42.0133 -81.0303 258° West 415 478 34,000  Level Cleveland Center
Mon 12:20:32 PM 41.9897 -81.1808 257° West 409 471 34,000  Level Cleveland Center
Mon 12:21:32 PM 41.9639 -81.3317 258° West 414 476 34,000  Level Cleveland Center
Mon 12:22:32 PM 41.9397 -81.4819 257° West 414 476 34,000  Level Cleveland Center
Mon 12:23:32 PM 41.9133 -81.6322 258° West 414 476 34,000  Level Cleveland Center
Mon 12:24:32 PM 41.8892 -81.7797 257° West 414 476 34,000  Level Cleveland Center
Mon 12:25:32 PM 41.8625 -81.9297 259° West 414 476 34,000  Level Cleveland Center
Mon 12:26:32 PM 41.8397 -82.0797 255° West 408 470 34,000  Level Cleveland Center
Mon 12:27:32 PM 41.8061 -82.2461 258° West 415 478 34,000  Level Cleveland Center
Mon 12:28:32 PM 41.7831 -82.3958 245° Southwest 415 478 34,000  Level Cleveland Center
Mon 12:29:32 PM 41.7350 -82.5336 235° Southwest 415 478 34,000  Level Cleveland Center
Mon 12:30:32 PM 41.6681 -82.6622 235° Southwest 415 478 34,000  Level Cleveland Center
Mon 12:31:32 PM 41.6011 -82.7881 213° Southwest 425 489 34,000  Level Cleveland Center
Mon 12:32:32 PM 41.5014 -82.8761 207° Southwest 416 479 34,000  Level Cleveland Center
Mon 12:33:32 PM 41.3914 -82.9497 208° Southwest 436 502 34,000  Level Cleveland Center
Mon 12:34:32 PM 41.2856 -83.0231 207° Southwest 443 510 34,000  Level Cleveland Center
Mon 12:35:32 PM 41.1778 -83.0964 229° Southwest 438 504 34,000  Level Cleveland Center
Mon 12:36:32 PM 41.1128 -83.1958 278° West 379 436 34,000  Level Cleveland Center
Mon 12:37:32 PM 41.1283 -83.3372 283° West 344 396 34,000  Level Cleveland Center
Mon 12:38:32 PM 41.1519 -83.4761 279° West 360 414 34,000  Level Cleveland Center
Mon 12:39:32 PM 41.1708 -83.6342 283° West 380 437 34,000  Level Cleveland Center
Mon 12:40:32 PM 41.1942 -83.7706 282° West 391 450 34,000  Level Cleveland Center
Mon 12:41:32 PM 41.2172 -83.9153 282° West 397 457 34,000  Level Cleveland Center
Mon 12:42:32 PM 41.2400 -84.0572 281° West 397 457 34,000  Level Cleveland Center
Mon 12:43:32 PM 41.2606 -84.1992 281° West 392 451 34,000  Level Cleveland Center
Mon 12:44:32 PM 41.2794 -84.3275 282° West 392 451 34,000 -1,056 Level Cleveland Center
Mon 12:45:54 PM 41.3100 -84.5142 280° West 367 422 31,500 -1,690 Descending Chicago Center
Mon 12:46:54 PM 41.3283 -84.6511 282° West 374 430 30,000 -750 Descending Chicago Center
Mon 12:47:54 PM 41.3481 -84.7800 282° West 364 419 30,000  Level Chicago Center
Mon 12:48:54 PM 41.3681 -84.9114 281° West 364 419 30,000 -500 Level Chicago Center
Mon 12:49:54 PM 41.3878 -85.0511 280° West 381 438 29,000 -1,000 Descending Chicago Center
Mon 12:50:54 PM 41.4081 -85.2050 282° West 387 445 28,000 -1,400 Descending Chicago Center
Mon 12:51:54 PM 41.4300 -85.3478 280° West 387 445 26,200 -2,000 Descending Chicago Center
Mon 12:52:54 PM 41.4472 -85.4822 281° West 387 445 24,000 -1,600 Descending Chicago Center
Mon 12:53:54 PM 41.4658 -85.6086 281° West 366 421 23,000 -950 Descending Chicago Center
Mon 12:54:54 PM 41.4844 -85.7325 282° West 348 400 22,100 -1,400 Descending Chicago Center
Mon 12:55:54 PM 41.5028 -85.8478 280° West 353 406 20,200 -1,950 Descending Chicago Center
Mon 12:56:54 PM 41.5192 -85.9775 275° West 353 406 18,200 -2,100 Descending Chicago Center
Mon 12:57:54 PM 41.5269 -86.1017 268° West 346 398 16,000 -2,250 Descending Chicago Center
Mon 12:58:54 PM 41.5242 -86.2267 269° West 341 392 13,700 -2,300 Descending Chicago Center
Mon 12:59:54 PM 41.5231 -86.3461 271° West 341 392 11,400 -1,500 Descending Chicago Center
Mon 01:00:54 PM 41.5242 -86.4653 268° West 335 386 10,700 -700 Descending Chicago Center
Mon 01:01:54 PM 41.5208 -86.5903 272° West 316 364 10,000 -350 Descending Chicago Center
Mon 01:02:54 PM 41.5233 -86.6928 269° West 300 345 10,000  Level Chicago Center
Mon 01:03:54 PM 41.5214 -86.7900 270° West 291 335 10,000 -50 Level Chicago Center
Mon 01:04:54 PM 41.5217 -86.8925 268° West 286 329 9,900 -750 Descending Chicago Center
Mon 01:05:54 PM 41.5194 -86.9925 275° West 286 329 8,500 -1,238 Descending Chicago Center
Mon 01:08:03 PM 41.5333 -87.2000 283° West 267 307 6,000 -1,206 Descending Chicago TRACON
Mon 01:09:03 PM 41.5500 -87.3000 285° West 266 306 4,700 -947 Descending Chicago TRACON
Mon 01:09:57 PM 41.5667 -87.3833 285° West 239 275 4,200 -350 Descending Chicago TRACON
Mon 01:11:03 PM 41.5833 -87.4667 312° West 216 249 4,000 -100 Descending Chicago TRACON
Mon 01:11:57 PM 41.6167 -87.5167 315° West 223 257 4,000  Level Chicago TRACON
Mon 01:13:03 PM 41.6667 -87.5833 312° West 198 228 4,000 -429 Level Chicago TRACON
Mon 01:14:03 PM 41.7000 -87.6333 323° Northwest 192 221 3,100 -947 Descending Chicago TRACON
Mon 01:14:57 PM 41.7333 -87.6667 346° North 171 197 2,200 -737 Descending Chicago TRACON
Mon 01:15:57 PM 41.7833 -87.6833 340° North 178 205 1,700 -400 Descending Chicago TRACON
Mon 01:16:57 PM 41.8167 -87.7000 340° North 136 157 1,400 -300 Descending Chicago TRACON

Login

Don't have an account? Register now (free) for customized features, flight alerts, and more!